createdAt,value
2022-11-06T00:00:28.326Z,12.23
2022-11-06T00:03:01.144Z,12.28
2022-11-06T00:05:49.666Z,12.31
2022-11-06T00:08:34.406Z,12.33
2022-11-06T00:11:08.265Z,12.32
2022-11-06T00:13:37.468Z,12.29
2022-11-06T00:16:07.945Z,12.27
2022-11-06T00:18:36.942Z,12.21
2022-11-06T00:21:10.936Z,12.21
2022-11-06T00:23:39.556Z,12.20
2022-11-06T00:26:12.979Z,12.22
2022-11-06T00:28:41.629Z,12.29
2022-11-06T00:31:13.036Z,12.27
2022-11-06T00:33:41.496Z,12.19
2022-11-06T00:36:15.330Z,12.16
2022-11-06T00:38:43.849Z,12.15
2022-11-06T00:41:15.001Z,12.14
2022-11-06T00:43:47.846Z,12.19
2022-11-06T00:46:15.833Z,12.22
2022-11-06T00:48:43.846Z,12.20
2022-11-06T00:51:20.314Z,12.24
2022-11-06T00:53:48.276Z,12.21
2022-11-06T00:56:19.068Z,12.24
2022-11-06T00:58:47.993Z,12.24
2022-11-06T01:01:22.572Z,12.20
2022-11-06T01:04:06.866Z,12.17
2022-11-06T01:06:41.368Z,12.06
2022-11-06T01:09:15.753Z,11.85
2022-11-06T01:14:39.751Z,11.70
2022-11-06T01:17:07.328Z,11.75
2022-11-06T01:19:35.184Z,11.75
2022-11-06T01:22:02.940Z,11.77
2022-11-06T01:24:32.328Z,11.81
2022-11-06T01:29:48.999Z,11.88
2022-11-06T01:32:16.624Z,11.94
2022-11-06T01:34:44.505Z,11.97
2022-11-06T01:37:14.811Z,11.90
2022-11-06T01:39:42.878Z,11.87
2022-11-06T01:42:13.526Z,11.95
2022-11-06T01:44:41.336Z,11.93
2022-11-06T01:47:27.922Z,11.90
2022-11-06T01:50:02.920Z,11.92
2022-11-06T01:52:33.072Z,11.87
2022-11-06T01:55:32.702Z,11.88
2022-11-06T01:58:03.471Z,11.85
2022-11-06T02:00:32.659Z,11.91
2022-11-06T02:03:01.649Z,11.91
2022-11-06T02:05:30.277Z,11.94
2022-11-06T02:07:59.148Z,11.91
2022-11-06T02:10:27.857Z,11.97
2022-11-06T02:13:35.034Z,11.87
2022-11-06T02:16:14.924Z,11.87
2022-11-06T02:19:00.880Z,11.97
2022-11-06T02:22:04.372Z,12.01
2022-11-06T02:25:14.163Z,12.03
2022-11-06T02:27:52.599Z,12.02
2022-11-06T02:30:20.424Z,12.07
2022-11-06T02:33:07.002Z,12.16
2022-11-06T02:35:56.432Z,12.19
2022-11-06T02:38:46.564Z,12.21
2022-11-06T02:41:24.639Z,12.19
2022-11-06T02:43:58.236Z,12.15
2022-11-06T02:46:40.050Z,12.18
2022-11-06T02:49:15.281Z,12.21
2022-11-06T02:51:54.022Z,12.20
2022-11-06T02:54:25.662Z,12.21
2022-11-06T02:56:55.809Z,12.23
2022-11-06T03:00:04.910Z,12.28
2022-11-06T03:02:47.687Z,12.31
2022-11-06T03:05:22.446Z,12.31
2022-11-06T03:08:02.793Z,12.26
2022-11-06T03:10:52.740Z,12.24
2022-11-06T03:13:27.823Z,12.17
2022-11-06T03:16:08.635Z,12.13
2022-11-06T03:18:46.797Z,12.11
2022-11-06T03:21:46.251Z,12.11
2022-11-06T03:24:31.451Z,12.10
2022-11-06T03:27:06.820Z,12.13
2022-11-06T03:29:44.358Z,12.11
2022-11-06T03:32:50.996Z,12.12
2022-11-06T03:35:39.485Z,12.17
2022-11-06T03:38:18.794Z,12.22
2022-11-06T03:40:53.094Z,12.24
2022-11-06T03:43:27.127Z,12.23
2022-11-06T03:45:56.816Z,12.15
2022-11-06T03:48:43.437Z,12.09
2022-11-06T03:51:39.528Z,12.04
2022-11-06T03:54:23.832Z,12.07
2022-11-06T03:57:10.127Z,12.05
2022-11-06T03:59:48.374Z,11.95
2022-11-06T04:02:17.493Z,11.97
2022-11-06T04:04:51.364Z,12.02
2022-11-06T04:07:29.245Z,12.05
2022-11-06T04:10:20.458Z,12.07
2022-11-06T04:13:09.341Z,12.07
2022-11-06T04:15:52.920Z,12.12
2022-11-06T04:18:20.860Z,12.18
2022-11-06T04:21:26.145Z,12.27
2022-11-06T04:24:35.400Z,12.25
2022-11-06T04:27:30.403Z,12.29
2022-11-06T04:30:15.840Z,12.34
2022-11-06T04:33:11.175Z,12.41
2022-11-06T04:35:52.579Z,12.45
2022-11-06T04:38:47.237Z,12.39
2022-11-06T04:42:01.157Z,12.35
2022-11-06T04:45:03.720Z,12.32
2022-11-06T04:47:32.432Z,12.35
2022-11-06T04:50:02.318Z,12.39
2022-11-06T04:52:29.946Z,12.43
2022-11-06T04:54:59.467Z,12.44
2022-11-06T04:57:27.483Z,12.48
2022-11-06T04:59:56.969Z,12.51
2022-11-06T05:02:24.747Z,12.53
2022-11-06T05:04:52.663Z,12.56
2022-11-06T05:07:20.154Z,12.58
2022-11-06T05:09:48.011Z,12.49
2022-11-06T05:12:15.606Z,12.37
2022-11-06T05:14:43.406Z,12.33
2022-11-06T05:17:10.979Z,12.31
2022-11-06T05:19:38.779Z,12.33
2022-11-06T05:22:24.991Z,12.38
2022-11-06T05:24:52.811Z,12.41
2022-11-06T05:27:20.331Z,12.43
2022-11-06T05:29:48.156Z,12.43
2022-11-06T05:32:15.635Z,12.44
2022-11-06T05:34:43.487Z,12.42
2022-11-06T05:37:11.128Z,12.43
2022-11-06T05:39:41.880Z,12.46
2022-11-06T05:42:09.796Z,12.47
2022-11-06T05:44:37.924Z,12.44
2022-11-06T05:47:05.453Z,12.45
2022-11-06T05:49:33.298Z,12.46
2022-11-06T05:52:00.759Z,12.50
2022-11-06T05:54:28.580Z,12.52
2022-11-06T05:56:56.058Z,12.52
2022-11-06T05:59:23.938Z,12.54
2022-11-06T06:01:51.555Z,12.54
2022-11-06T06:04:19.466Z,12.52
2022-11-06T06:06:47.303Z,12.50
2022-11-06T06:09:15.042Z,12.45
2022-11-06T06:11:42.546Z,12.39
2022-11-06T06:14:10.346Z,12.38
2022-11-06T06:16:37.888Z,12.35
2022-11-06T06:19:05.924Z,12.38
2022-11-06T06:21:33.427Z,12.41
2022-11-06T06:24:01.255Z,12.43
2022-11-06T06:26:28.928Z,12.45
2022-11-06T06:28:56.825Z,12.49
2022-11-06T06:31:24.755Z,12.49
2022-11-06T06:33:52.841Z,12.49
2022-11-06T06:36:20.401Z,12.50
2022-11-06T06:38:48.211Z,12.47
2022-11-06T06:41:15.862Z,12.48
2022-11-06T06:43:43.708Z,12.50
2022-11-06T06:46:11.394Z,12.49
2022-11-06T06:48:39.235Z,12.49
2022-11-06T06:51:07.983Z,12.49
2022-11-06T06:53:36.272Z,12.43
2022-11-06T06:56:04.836Z,12.39
2022-11-06T06:58:33.455Z,12.40
2022-11-06T07:01:06.068Z,12.37
2022-11-06T07:03:34.149Z,12.34
2022-11-06T07:06:01.670Z,12.32
2022-11-06T07:08:30.622Z,12.20
2022-11-06T07:11:08.389Z,12.19
2022-11-06T07:13:36.690Z,12.21
2022-11-06T07:16:10.892Z,12.17
2022-11-06T07:18:40.138Z,12.06
2022-11-06T07:21:11.498Z,12.11
2022-11-06T07:23:39.776Z,12.11
2022-11-06T07:26:07.534Z,12.11
2022-11-06T07:28:35.900Z,12.09
2022-11-06T07:31:06.744Z,12.11
2022-11-06T07:33:35.683Z,12.17
2022-11-06T07:36:09.215Z,12.18
2022-11-06T07:38:38.751Z,12.26
2022-11-06T07:41:09.993Z,12.18
2022-11-06T07:43:39.782Z,12.21
2022-11-06T07:46:10.258Z,12.19
2022-11-06T07:48:39.535Z,12.13
2022-11-06T07:51:09.796Z,12.10
2022-11-06T07:53:38.843Z,12.10
2022-11-06T07:56:08.686Z,12.03
2022-11-06T07:58:36.755Z,12.07
2022-11-06T08:01:04.352Z,12.16
2022-11-06T08:03:32.360Z,12.22
2022-11-06T08:06:02.839Z,12.31
2022-11-06T08:08:31.440Z,12.40
2022-11-06T08:11:10.740Z,12.44
2022-11-06T08:13:39.739Z,12.46
2022-11-06T08:16:12.939Z,12.48
2022-11-06T08:18:41.753Z,12.56
2022-11-06T08:21:09.585Z,12.58
2022-11-06T08:23:37.687Z,12.63
2022-11-06T08:26:07.340Z,12.66
2022-11-06T08:28:35.677Z,12.70
2022-11-06T08:31:07.989Z,12.75
2022-11-06T08:33:37.933Z,12.78
2022-11-06T08:36:07.578Z,12.80
2022-11-06T08:38:36.706Z,12.83
2022-11-06T08:41:10.735Z,12.85
2022-11-06T08:43:39.178Z,12.87
2022-11-06T08:46:09.016Z,12.90
2022-11-06T08:48:37.376Z,12.91
2022-11-06T08:51:06.100Z,12.91
2022-11-06T08:53:34.321Z,12.93
2022-11-06T08:56:04.518Z,13.00
2022-11-06T08:58:32.454Z,13.01
2022-11-06T09:01:00.036Z,12.98
2022-11-06T09:03:28.231Z,12.95
2022-11-06T09:05:56.700Z,12.97
2022-11-06T09:08:25.484Z,13.01
2022-11-06T09:10:58.188Z,13.06
2022-11-06T09:13:27.191Z,13.11
2022-11-06T09:15:54.728Z,13.13
2022-11-06T09:18:22.790Z,13.07
2022-11-06T09:20:53.852Z,13.02
2022-11-06T09:23:21.786Z,12.97
2022-11-06T09:25:49.983Z,12.93
2022-11-06T09:28:20.306Z,12.89
2022-11-06T09:30:47.845Z,12.90
2022-11-06T09:33:16.149Z,12.95
2022-11-06T09:36:06.967Z,12.99
2022-11-06T09:38:34.817Z,12.96
2022-11-06T09:41:03.642Z,12.91
2022-11-06T09:46:48.187Z,12.94
2022-11-06T09:49:25.652Z,12.94
2022-11-06T09:52:30.412Z,12.95
2022-11-06T09:55:24.793Z,12.96
2022-11-06T09:57:57.776Z,12.89
2022-11-06T10:00:26.602Z,12.86
2022-11-06T10:03:33.845Z,12.85
2022-11-06T10:06:01.688Z,12.82
2022-11-06T10:08:30.702Z,12.75
2022-11-06T10:11:16.567Z,12.80
2022-11-06T10:14:17.940Z,12.85
2022-11-06T10:16:58.572Z,12.92
2022-11-06T10:19:32.127Z,12.85
2022-11-06T10:22:33.700Z,12.84
2022-11-06T10:25:37.215Z,12.79
2022-11-06T10:28:39.378Z,12.64
2022-11-06T10:31:31.664Z,12.64
2022-11-06T10:34:21.683Z,12.62
2022-11-06T10:37:05.906Z,12.65
2022-11-06T10:39:36.992Z,12.70
2022-11-06T10:42:20.747Z,12.72
2022-11-06T10:45:14.747Z,12.77
2022-11-06T10:47:54.516Z,12.75
2022-11-06T10:50:33.112Z,12.76
2022-11-06T10:53:49.898Z,12.82
2022-11-06T10:56:34.727Z,12.85
2022-11-06T10:59:02.481Z,12.88
2022-11-06T11:01:30.584Z,12.94
2022-11-06T11:03:58.434Z,13.02
2022-11-06T11:06:26.341Z,13.06
2022-11-06T11:08:53.861Z,13.10
2022-11-06T11:11:25.812Z,13.01
2022-11-06T11:14:02.259Z,12.97
2022-11-06T11:16:37.464Z,12.96
2022-11-06T11:19:38.621Z,12.91
2022-11-06T11:22:20.651Z,12.90
2022-11-06T11:25:25.876Z,12.89
2022-11-06T11:27:54.186Z,12.85
2022-11-06T11:30:26.512Z,12.89
2022-11-06T11:32:58.924Z,12.88
2022-11-06T11:35:31.536Z,12.87
2022-11-06T11:38:11.856Z,12.89
2022-11-06T11:40:39.995Z,12.84
2022-11-06T11:43:26.175Z,12.79
2022-11-06T11:46:10.708Z,12.73
2022-11-06T11:48:50.129Z,12.79
2022-11-06T11:51:35.884Z,12.85
2022-11-06T11:54:12.780Z,12.76
2022-11-06T11:57:05.794Z,12.72
2022-11-06T12:00:02.913Z,12.72
2022-11-06T12:02:41.466Z,12.76
2022-11-06T12:05:21.260Z,12.75
2022-11-06T12:07:54.251Z,12.76
2022-11-06T12:10:42.848Z,12.80
2022-11-06T12:13:21.922Z,12.87
2022-11-06T12:16:12.409Z,12.92
2022-11-06T12:18:58.489Z,12.99
2022-11-06T12:21:36.776Z,13.07
2022-11-06T12:24:35.440Z,13.10
2022-11-06T12:27:31.184Z,13.13
2022-11-06T12:30:10.088Z,13.01
2022-11-06T12:32:40.815Z,12.88
2022-11-06T12:35:26.973Z,12.81
2022-11-06T12:38:19.007Z,12.78
2022-11-06T12:40:55.984Z,12.79
2022-11-06T12:43:50.280Z,12.80
2022-11-06T12:47:00.914Z,12.83
2022-11-06T12:49:31.529Z,12.78
2022-11-06T12:52:38.409Z,12.76
2022-11-06T12:55:41.494Z,12.76
2022-11-06T12:58:46.260Z,12.69
2022-11-06T13:01:52.967Z,12.68
2022-11-06T13:04:35.921Z,12.64
2022-11-06T13:07:40.956Z,12.56
2022-11-06T13:10:26.697Z,12.52
2022-11-06T13:13:28.238Z,12.43
2022-11-06T13:16:27.736Z,12.46
2022-11-06T13:19:12.653Z,12.43
2022-11-06T13:21:52.769Z,12.40
2022-11-06T13:24:59.710Z,12.37
2022-11-06T13:27:48.569Z,12.40
2022-11-06T13:30:22.509Z,12.41
2022-11-06T13:33:24.994Z,12.49
2022-11-06T13:35:56.408Z,12.45
2022-11-06T13:38:42.737Z,12.46
2022-11-06T13:41:29.625Z,12.48
2022-11-06T13:44:08.065Z,12.51
2022-11-06T13:46:56.960Z,12.58
2022-11-06T13:49:45.099Z,12.64
2022-11-06T13:52:54.254Z,12.62
2022-11-06T13:55:40.959Z,12.61
2022-11-06T13:58:43.035Z,12.53
2022-11-06T14:01:28.615Z,12.58
2022-11-06T14:04:20.329Z,12.59
2022-11-06T14:06:52.261Z,12.64
2022-11-06T14:09:25.775Z,12.73
2022-11-06T14:11:57.447Z,12.62
2022-11-06T14:14:30.495Z,12.63
2022-11-06T14:17:24.814Z,12.65
2022-11-06T14:19:52.551Z,12.55
2022-11-06T14:22:28.324Z,12.56
2022-11-06T14:25:01.542Z,12.57
2022-11-06T14:27:32.773Z,12.62
2022-11-06T14:30:05.596Z,12.69
2022-11-06T14:32:41.321Z,12.74
2022-11-06T14:35:34.025Z,12.77
2022-11-06T14:38:17.498Z,12.77
2022-11-06T14:40:45.735Z,12.69
2022-11-06T14:43:33.913Z,12.60
2022-11-06T14:46:07.630Z,12.59
2022-11-06T14:49:08.003Z,12.62
2022-11-06T14:51:36.570Z,12.65
2022-11-06T14:54:27.375Z,12.65
2022-11-06T14:56:56.096Z,12.51
2022-11-06T14:59:38.682Z,12.45
2022-11-06T15:02:29.368Z,12.48
2022-11-06T15:05:08.304Z,12.47
2022-11-06T15:08:04.067Z,12.46
2022-11-06T15:10:45.135Z,12.44
2022-11-06T15:13:21.113Z,12.44
2022-11-06T15:16:05.499Z,12.48
2022-11-06T15:18:37.182Z,12.51
2022-11-06T15:21:10.844Z,12.51
2022-11-06T15:24:05.832Z,12.46
2022-11-06T15:26:54.198Z,12.40
2022-11-06T15:29:29.214Z,12.44
2022-11-06T15:32:12.152Z,12.36
2022-11-06T15:34:43.468Z,12.26
2022-11-06T15:37:43.423Z,12.25
2022-11-06T15:40:33.997Z,12.26
2022-11-06T15:43:26.247Z,12.28
2022-11-06T15:46:18.220Z,12.33
2022-11-06T15:48:46.492Z,12.34
2022-11-06T15:51:29.182Z,12.30
2022-11-06T15:53:56.799Z,12.30
2022-11-06T15:56:35.588Z,12.35
2022-11-06T15:59:21.285Z,12.40
2022-11-06T16:01:50.299Z,12.33
2022-11-06T16:04:25.875Z,12.26
2022-11-06T16:11:46.217Z,12.09
2022-11-06T16:14:15.132Z,12.01
2022-11-06T16:16:47.581Z,11.96
2022-11-06T16:19:36.905Z,11.93
2022-11-06T16:22:17.949Z,12.01
2022-11-06T16:24:57.864Z,12.03
2022-11-06T16:27:34.080Z,12.01
2022-11-06T16:30:03.894Z,12.08
2022-11-06T16:32:40.570Z,12.08
2022-11-06T16:35:35.829Z,12.13
2022-11-06T16:38:39.669Z,12.19
2022-11-06T16:41:08.130Z,12.23
2022-11-06T16:43:35.892Z,12.24
2022-11-06T16:46:12.684Z,12.24
2022-11-06T16:48:45.680Z,12.27
2022-11-06T16:51:28.702Z,12.24
2022-11-06T16:54:00.060Z,12.27
2022-11-06T16:56:32.814Z,12.30
2022-11-06T16:59:09.162Z,12.37
2022-11-06T17:01:44.557Z,12.26
2022-11-06T17:04:30.407Z,12.21
2022-11-06T17:06:59.086Z,12.15
2022-11-06T17:09:34.707Z,12.10
2022-11-06T17:12:04.764Z,12.11
2022-11-06T17:14:33.110Z,12.16
2022-11-06T17:17:09.028Z,12.15
2022-11-06T17:19:44.733Z,12.14
2022-11-06T17:22:12.743Z,12.16
2022-11-06T17:24:41.876Z,12.20
2022-11-06T17:27:14.159Z,12.26
2022-11-06T17:29:41.781Z,12.32
2022-11-06T17:32:11.555Z,12.34
2022-11-06T17:34:39.209Z,12.38
2022-11-06T17:37:07.005Z,12.42
2022-11-06T17:39:34.645Z,12.46
2022-11-06T17:42:07.898Z,12.44
2022-11-06T17:44:43.733Z,12.31
2022-11-06T17:47:16.382Z,12.28
2022-11-06T17:49:47.554Z,12.29
2022-11-06T17:52:18.993Z,12.32
2022-11-06T17:54:46.646Z,12.33
2022-11-06T17:57:22.789Z,12.25
2022-11-06T17:59:57.100Z,12.21
2022-11-06T18:02:41.132Z,12.17
2022-11-06T18:05:12.969Z,12.12
2022-11-06T18:07:44.307Z,12.13
2022-11-06T18:10:15.107Z,12.00
2022-11-06T18:12:43.251Z,11.92
2022-11-06T18:15:12.304Z,11.95
2022-11-06T18:17:40.343Z,12.00
2022-11-06T18:20:09.027Z,12.05
2022-11-06T18:22:38.176Z,12.10
2022-11-06T18:25:06.878Z,12.03
2022-11-06T18:27:34.816Z,12.04
2022-11-06T18:30:02.581Z,11.94
2022-11-06T18:32:31.505Z,11.83
2022-11-06T18:34:59.311Z,11.84
2022-11-06T18:37:27.278Z,11.88
2022-11-06T18:39:54.902Z,11.83
2022-11-06T18:42:24.004Z,11.85
2022-11-06T18:44:52.606Z,11.92
2022-11-06T18:47:22.400Z,11.84
2022-11-06T18:49:50.010Z,11.83
2022-11-06T18:52:38.031Z,11.88
2022-11-06T18:55:06.454Z,11.89
2022-11-06T18:57:34.578Z,11.98
2022-11-06T19:00:02.328Z,11.98
2022-11-06T19:02:30.449Z,12.04
2022-11-06T19:05:03.096Z,12.05
2022-11-06T19:07:31.764Z,12.09
2022-11-06T19:09:59.252Z,12.09
2022-11-06T19:12:27.227Z,12.00
2022-11-06T19:14:54.941Z,12.00
2022-11-06T19:17:22.986Z,12.01
2022-11-06T19:19:51.921Z,12.07
2022-11-06T19:22:19.902Z,12.14
2022-11-06T19:24:47.432Z,12.18
2022-11-06T19:27:15.370Z,12.13
2022-11-06T19:29:42.938Z,12.09
2022-11-06T19:32:11.511Z,12.10
2022-11-06T19:34:39.427Z,11.98
2022-11-06T19:37:07.692Z,12.01
2022-11-06T19:39:36.971Z,12.03
2022-11-06T19:42:04.811Z,12.07
2022-11-06T19:44:33.483Z,12.11
2022-11-06T19:47:03.956Z,12.15
2022-11-06T19:49:31.684Z,12.17
2022-11-06T19:52:42.261Z,12.20
2022-11-06T19:54:50.019Z,12.24
2022-11-06T19:57:40.357Z,12.27
2022-11-06T20:00:11.486Z,12.32
2022-11-06T20:02:58.249Z,12.38
2022-11-06T20:05:25.963Z,12.43
2022-11-06T20:07:57.948Z,12.48
2022-11-06T20:10:25.656Z,12.51
2022-11-06T20:12:58.389Z,12.53
2022-11-06T20:15:25.953Z,12.53
2022-11-06T20:17:54.546Z,12.54
2022-11-06T20:20:25.964Z,12.56
2022-11-06T20:22:57.234Z,12.54
2022-11-06T20:25:25.958Z,12.53
2022-11-06T20:27:54.098Z,12.54
2022-11-06T20:30:21.739Z,12.55
2022-11-06T20:32:49.749Z,12.56
2022-11-06T20:35:19.351Z,12.58
2022-11-06T20:37:47.220Z,12.58
2022-11-06T20:40:19.799Z,12.60
2022-11-06T20:42:47.754Z,12.63
2022-11-06T20:45:15.377Z,12.66
2022-11-06T20:47:43.226Z,12.70
2022-11-06T20:50:10.732Z,12.75
2022-11-06T20:52:38.610Z,12.78
2022-11-06T20:55:06.605Z,12.82
2022-11-06T20:57:34.513Z,12.84
2022-11-06T21:00:02.477Z,12.86
2022-11-06T21:02:30.446Z,12.88
2022-11-06T21:04:58.136Z,12.88
2022-11-06T21:07:25.954Z,12.90
2022-11-06T21:09:53.404Z,12.92
2022-11-06T21:12:23.028Z,12.93
2022-11-06T21:14:50.450Z,12.92
2022-11-06T21:17:18.289Z,12.88
2022-11-06T21:19:45.804Z,12.86
2022-11-06T21:22:13.718Z,12.85
2022-11-06T21:24:41.266Z,12.84
2022-11-06T21:27:09.911Z,12.83
2022-11-06T21:29:37.453Z,12.85
2022-11-06T21:32:05.545Z,12.85
2022-11-06T21:34:33.054Z,12.83
2022-11-06T21:37:02.923Z,12.81
2022-11-06T21:39:35.763Z,12.81
2022-11-06T21:42:05.499Z,12.84
2022-11-06T21:44:33.218Z,12.87
2022-11-06T21:47:01.049Z,12.88
2022-11-06T21:49:28.652Z,12.90
2022-11-06T21:52:17.834Z,12.88
2022-11-06T21:55:04.134Z,12.85
2022-11-06T21:57:32.003Z,12.82
2022-11-06T21:59:59.417Z,12.79
2022-11-06T22:02:27.357Z,12.78
2022-11-06T22:04:54.923Z,12.78
2022-11-06T22:07:22.777Z,12.73
2022-11-06T22:09:51.897Z,12.75
2022-11-06T22:12:19.609Z,12.71
2022-11-06T22:14:49.460Z,12.65
2022-11-06T22:17:17.326Z,12.65
2022-11-06T22:19:45.614Z,12.65
2022-11-06T22:22:13.671Z,12.57
2022-11-06T22:24:41.132Z,12.49
2022-11-06T22:27:09.464Z,12.44
2022-11-06T22:29:36.976Z,12.36
2022-11-06T22:32:05.204Z,12.30
2022-11-06T22:34:43.298Z,12.28
2022-11-06T22:37:12.732Z,12.28
2022-11-06T22:39:40.202Z,12.33
2022-11-06T22:42:08.783Z,12.38
2022-11-06T22:44:37.070Z,12.41
2022-11-06T22:47:05.448Z,12.45
2022-11-06T22:49:33.099Z,12.49
2022-11-06T22:52:01.471Z,12.53
2022-11-06T22:54:31.335Z,12.61
2022-11-06T22:56:59.122Z,12.51
2022-11-06T22:59:28.479Z,12.49
2022-11-06T23:01:58.253Z,12.48
2022-11-06T23:04:33.296Z,12.39
2022-11-06T23:07:12.508Z,12.28
2022-11-06T23:09:50.027Z,12.25
2022-11-06T23:12:31.818Z,12.27
2022-11-06T23:15:18.686Z,12.34
2022-11-06T23:18:25.071Z,12.41
2022-11-06T23:20:52.864Z,12.45
2022-11-06T23:23:20.733Z,12.46
2022-11-06T23:25:48.206Z,12.48
2022-11-06T23:28:16.355Z,12.50
2022-11-06T23:30:43.939Z,12.52
2022-11-06T23:33:12.349Z,12.52
2022-11-06T23:35:40.073Z,12.58
2022-11-06T23:38:07.949Z,12.63
2022-11-06T23:40:35.460Z,12.69
2022-11-06T23:43:03.268Z,12.63
2022-11-06T23:45:49.215Z,12.63
2022-11-06T23:49:54.533Z,12.61
2022-11-06T23:52:22.884Z,12.60
2022-11-06T23:54:50.746Z,12.58
2022-11-06T23:57:18.203Z,12.56
2022-11-06T23:59:46.177Z,12.58
